RPLC/CRK METAR and TAF weather

Enter ICAO airport designator
Station Type Date Time Source
RPLC METAR 2019/06/20 07:00 UTC NOAA

RPLC 200700Z 07008KT 9000 -SHRA SCT020 BKN100 5/24 Q1007 RMK A2974


Station Type Date Time Source
RPLC Decoded METAR 2019/06/20 07:00 UTC NOAA

Clarkfield Pampanga International Airport, Philippines (RPLC) 15-11N 120-33E
Jun 20, 2019 - 03:00 AM EDT / 2019.06.20 0700 UTC
Wind: from the ENE (070 degrees) at 9 MPH (8 KT):0
Visibility: 5 mile(s):0
Sky conditions: mostly cloudy
Weather: light rain showers
Pressure (altimeter): 29.74 in. Hg (1007 hPa)
ob: RPLC 200700Z 07008KT 9000 -SHRA SCT020 BKN100 5/24 Q1007 RMK A2974
cycle: 7

Station Type Date Time Source
RPLC TAF 2019/06/20 06:00 UTC NOAA

TAF RPLC 200500Z 2006/2112 12006KT 9999 SCT020 BKN300 TX34/2006Z TN26/2022Z
TEMPO 2006/2012 22008KT 9000 -TSRA FEW015CB SCT020 BKN100

Example: see airport list